Home > Products > Valid Products > TAF

000
FTUS45 KBOI 180301 AAA
TAFBNO
TAF AMD
KBNO 180301Z 1803/1824 26014KT P6SM -SHRA OVC050
     FM180700 27010KT P6SM FEW025 BKN050
     FM181000 25006KT P6SM SCT150=



000
FTUS45 KBOI 180252 AAB
TAFJER
TAF AMD
KJER 180252Z 1803/1824 05014KT P6SM BKN100 OVC120
     FM180600 23022G32KT P6SM VCSH SCT050 BKN070 OVC100
     FM181500 26018G28KT P6SM SCT150=



000
FTUS45 KBOI 180251 AAA
TAFTWF
TAF AMD
KTWF 180251Z 1803/1824 04006KT P6SM OVC120
     FM180400 20012G20KT P6SM SCT080 OVC100
     FM180600 27022G32KT P6SM VCSH SCT050 BKN070 OVC100
     FM181500 26016G26KT P6SM SCT150=



000
FTUS45 KBOI 180248 AAC
TAFBOI
TAF AMD
KBOI 180248Z 1803/1824 23012KT P6SM BKN090 OVC110
     FM180400 32020G30KT P6SM VCSH SCT050 OVC090
     FM180700 32014KT P6SM VCSH BKN070 OVC110
     FM181200 31008KT P6SM BKN060=



000
FTUS45 KBOI 180223 AAB
TAFBOI
TAF AMD
KBOI 180223Z 1802/1824 24012KT P6SM SCT100 BKN200
     FM180500 32014G24KT P6SM VCSH SCT050 OVC090
     FM181200 31008KT P6SM BKN060=



000
FTUS45 KBOI 180222 AAA
TAFJER
TAF AMD
KJER 180222Z 1802/1824 03009KT P6SM SCT100 OVC200
     FM180300 05014KT P6SM BKN100 OVC120
     FM180800 23015G25KT P6SM VCSH SCT050 BKN090
     FM181500 26018G28KT P6SM SCT150=



000
FTUS45 KBOI 172331
TAFBKE
TAF
KBKE 172331Z 1800/1824 03012KT P6SM OVC070
      TEMPO 1800/1801 33014G22KT P6SM -SHRA OVC050
     FM180100 33014G22KT P6SM -SHRA OVC050
     FM180300 32013KT P6SM -SHRA SCT025 OVC040
     FM180900 32009KT P6SM VCSH BKN050=



000
FTUS45 KBOI 172331
TAFMYL
TAF
KMYL 172331Z 1800/1824 17009G16KT P6SM OVC060
     FM180300 33007KT P6SM -SHRA SCT025 OVC045
     FM180500 VRB04KT 5SM -SHRA SCT007 OVC015
     FM181400 33006KT P6SM BKN035
     FM181800 22008KT P6SM SCT150=



000
FTUS45 KBOI 172331
TAFBNO
TAF
KBNO 172331Z 1800/1824 28014G24KT P6SM -SHRA OVC050
     FM180700 27010KT P6SM FEW025 BKN050
     FM181000 25006KT P6SM SCT150=



000
FTUS45 KBOI 172331
TAFJER
TAF
KJER 172331Z 1800/1824 09009KT P6SM BKN200
     FM180300 05014KT P6SM SCT100 OVC200
     FM180800 23015G25KT P6SM VCSH SCT050 BKN090
     FM181500 26018G28KT P6SM SCT150=



000
FTUS45 KBOI 172331
TAFBOI
TAF
KBOI 172331Z 1800/1824 13012G22KT P6SM SCT100 BKN200
     FM180500 32014G24KT P6SM VCSH SCT050 OVC090
     FM181200 31008KT P6SM BKN060=



000
FTUS45 KBOI 172331
TAFTWF
TAF
KTWF 172331Z 1800/1824 16009KT P6SM SCT200
     FM180300 20012G20KT P6SM SCT100 OVC200
     FM180800 24015G25KT P6SM VCSH SCT050 BKN090
     FM181500 26018G28KT P6SM SCT150=



000
FTUS45 KBOI 171720
TAFMYL
TAF
KMYL 171720Z 1718/1818 19008KT P6SM OVC060
     FM172000 17009G16KT P6SM OVC060
     FM180300 33007KT P6SM -SHRA SCT025 OVC045
     FM180500 VRB04KT 5SM -SHRA SCT007 OVC015
     FM181400 33006KT P6SM BKN030=



000
FTUS45 KBOI 171720
TAFBNO
TAF
KBNO 171720Z 1718/1818 VRB05KT P6SM SCT090 OVC200
     FM171900 23012G20KT P6SM SCT050 OVC090
     FM172300 28014G24KT P6SM -SHRA OVC050
     FM180900 27010KT P6SM FEW025 BKN050=



000
FTUS45 KBOI 171720
TAFTWF
TAF
KTWF 171720Z 1718/1818 16009KT P6SM BKN200
     FM180300 20012G20KT P6SM SCT100 OVC200
     FM180800 24015G25KT P6SM VCSH SCT050 BKN090=



000
FTUS45 KBOI 171720
TAFBOI
TAF
KBOI 171720Z 1718/1818 13012KT P6SM SCT100 BKN200
     FM180300 32014G24KT P6SM VCSH SCT050 OVC090
     FM181200 31010KT P6SM BKN060=



000
FTUS45 KBOI 171720
TAFBKE
TAF
KBKE 171720Z 1718/1818 13008KT P6SM SCT050 OVC080
     FM172300 33014G22KT P6SM -SHRA OVC050
     FM180300 32013KT P6SM -SHRA SCT025 OVC040
     FM180900 32009KT P6SM VCSH BKN050=



000
FTUS45 KBOI 171720
TAFJER
TAF
KJER 171720Z 1718/1818 09009KT P6SM BKN200
     FM180300 05014KT P6SM SCT100 OVC200
     FM180800 23015G25KT P6SM VCSH SCT050 BKN090=



000
FTUS45 KBOI 171120
TAFMYL
TAF
KMYL 171120Z 1712/1812 VRB05KT P6SM OVC060
     FM171900 17009KT P6SM OVC060
     FM180300 33007KT P6SM -SHRA SCT025 OVC045
     FM180700 VRB04KT 5SM -SHRASN SCT010 OVC020=



000
FTUS45 KBOI 171120
TAFJER
TAF
KJER 171120Z 1712/1812 09009KT P6SM FEW100
     FM180400 09014KT P6SM SCT100 OVC200
     FM180900 23013KT P6SM FEW050 BKN090=



000
FTUS45 KBOI 171120
TAFBOI
TAF
KBOI 171120Z 1712/1812 13009KT P6SM SCT100 BKN200
     FM180300 32014G24KT P6SM VCSH SCT050 OVC090=



000
FTUS45 KBOI 171120
TAFBNO
TAF
KBNO 171120Z 1712/1812 VRB05KT P6SM SCT090 OVC200
     FM171900 23012KT P6SM SCT050 OVC090
     FM180000 28014G24KT P6SM -SHRA OVC050
     FM180900 27012KT P6SM VCSH FEW025 OVC050=



000
FTUS45 KBOI 171120
TAFTWF
TAF
KTWF 171120Z 1712/1812 19010KT P6SM FEW100
     FM171800 12009KT P6SM SCT100 BKN200
     FM180400 19010KT P6SM SCT100 OVC200
     FM180900 23013KT P6SM FEW050 BKN090=



000
FTUS45 KBOI 171120
TAFBKE
TAF
KBKE 171120Z 1712/1812 VRB04KT P6SM SCT060 OVC090
     FM171800 13008KT P6SM SCT050 OVC080
     FM180000 33012G22KT P6SM -SHRA OVC050
     FM180300 32013KT P6SM -SHRA SCT025 OVC040
     FM180900 32009KT P6SM VCSH SCT025 OVC050=



000
FTUS45 KBOI 170520
TAFBKE
TAF
KBKE 170520Z 1706/1806 07006KT P6SM SCT080 BKN120
     FM171700 13005KT P6SM OVC100
     FM172100 13008KT P6SM VCSH OVC070
     FM180000 33012G22KT P6SM -SHRA OVC050=



000
FTUS45 KBOI 170520
TAFJER
TAF
KJER 170520Z 1706/1806 22006KT P6SM SCT120
     FM171200 05008KT P6SM BKN120=



000
FTUS45 KBOI 170520
TAFBOI
TAF
KBOI 170520Z 1706/1806 VRB06KT P6SM SCT120
     FM171800 13012KT P6SM SCT080 OVC120
     FM180200 32014G24KT P6SM VCSH OVC100=



000
FTUS45 KBOI 170520
TAFTWF
TAF
KTWF 170520Z 1706/1806 20010KT P6SM SCT120
     FM171800 16008KT P6SM BKN120
     FM180000 10008KT P6SM OVC100=



000
FTUS45 KBOI 170520
TAFBNO
TAF
KBNO 170520Z 1706/1806 VRB05KT P6SM BKN100
     FM172100 24008KT P6SM VCSH OVC080
     FM180000 28013G23KT P6SM -SHRA OVC050=



000
FTUS45 KBOI 170520
TAFMYL
TAF
KMYL 170520Z 1706/1806 20005KT P6SM BKN080
     FM171300 VRB03KT P6SM BKN080 OVC120=



000
FTUS45 KBOI 162320
TAFBNO
TAF
KBNO 162320Z 1700/1724 15006KT P6SM SCT100 BKN200
     FM170300 VRB05KT P6SM BKN100
     FM171500 09005KT P6SM VCSH OVC050=



000
FTUS45 KBOI 162320
TAFMYL
TAF
KMYL 162320Z 1700/1724 20005KT P6SM BKN080
     FM171300 VRB03KT P6SM BKN080 OVC120=



000
FTUS45 KBOI 162320
TAFJER
TAF
KJER 162320Z 1700/1724 27010G20KT P6SM SCT200
     FM170500 22006KT P6SM SCT120
     FM171200 05008KT P6SM BKN120=



000
FTUS45 KBOI 162320
TAFBOI
TAF
KBOI 162320Z 1700/1724 29012KT P6SM SCT120
     FM170400 VRB06KT P6SM SCT120
     FM171800 13007KT P6SM SCT080 OVC120=



000
FTUS45 KBOI 162320
TAFTWF
TAF
KTWF 162320Z 1700/1724 25008KT P6SM SCT120
     FM170300 20010KT P6SM BKN120
     FM171800 22008KT P6SM BKN120=



000
FTUS45 KBOI 162320
TAFBKE
TAF
KBKE 162320Z 1700/1724 07006KT P6SM SCT080 BKN120
     FM171700 13005KT P6SM OVC100
     FM172100 13008KT P6SM VCSH OVC050=



000
FTUS45 KBOI 162101 AAA
TAFJER
TAF AMD
KJER 162101Z 1621/1718 27010G20KT P6SM SCT200
     FM170500 22006KT P6SM OVC100=



000
FTUS45 KBOI 162004 AAA
TAFTWF
TAF AMD
KTWF 162004Z 1620/1718 25008KT P6SM BKN120
     FM170300 20010KT P6SM BKN120
     FM170400 22008KT P6SM BKN120=



000
FTUS45 KBOI 161739
TAFBOI
TAF
KBOI 161739Z 1618/1718 29005KT P6SM SCT120 OVC200
     FM170400 VRB03KT P6SM BKN120
     FM171200 13007KT P6SM SCT080 OVC120=



000
FTUS45 KBOI 161739
TAFBKE
TAF
KBKE 161739Z 1618/1718 VRB04KT P6SM BKN100
     FM162100 07006KT P6SM SCT100 BKN200
     FM171700 13005KT P6SM VCSH OVC050=



000
FTUS45 KBOI 161739
TAFBNO
TAF
KBNO 161739Z 1618/1718 VRB04KT P6SM SKC
     FM162100 25010KT P6SM SCT100 BKN200
     FM170300 VRB05KT P6SM BKN100
     FM171500 09005KT P6SM VCSH OVC050=



000
FTUS45 KBOI 161739
TAFTWF
TAF
KTWF 161739Z 1618/1718 28015KT P6SM BKN120
     FM170300 20010KT P6SM BKN120
     FM170400 22008KT P6SM BKN120=



000
FTUS45 KBOI 161739
TAFJER
TAF
KJER 161739Z 1618/1718 23008KT P6SM SCT120
     FM162100 36014KT P6SM BKN120
     FM170500 22006KT P6SM OVC100=



000
FTUS45 KBOI 161739
TAFMYL
TAF
KMYL 161739Z 1618/1718 VRB03KT P6SM FEW060 OVC100
     FM162100 20005KT P6SM SCT100 BKN200
     FM171300 VRB03KT P6SM BKN080 OVC120=



000
FTUS45 KBOI 161501 AAA
TAFTWF
TAF AMD
KTWF 161501Z 1615/1712 25012KT P6SM SCT100 OVC200
     FM161800 27014KT P6SM SCT100 OVC200
     FM170300 20010KT P6SM OVC100=



000
FTUS45 KBOI 161120
TAFBKE
TAF
KBKE 161120Z 1612/1712 VRB03KT P6SM SCT100 OVC200
     FM162100 32006KT P6SM OVC050
     FM170300 VRB03KT P6SM OVC050=



000
FTUS45 KBOI 161120
TAFBNO
TAF
KBNO 161120Z 1612/1712 26006KT P6SM SCT100 OVC200
     FM161900 25010KT P6SM SCT050 BKN100
     FM170300 VRB05KT P6SM OVC050=



000
FTUS45 KBOI 161120
TAFJER
TAF
KJER 161120Z 1612/1712 VRB05KT P6SM SCT100 OVC200
     FM161600 25013KT P6SM SCT100 OVC200
     FM170500 VRB05KT P6SM OVC100=



000
FTUS45 KBOI 161120
TAFMYL
TAF
KMYL 161120Z 1612/1712 VRB03KT P6SM SCT100 OVC200
     FM162100 22008KT P6SM VCSH SCT050 OVC100
     FM170300 VRB03KT P6SM VCSH OVC050=



000
FTUS45 KBOI 161120
TAFTWF
TAF
KTWF 161120Z 1612/1712 21010KT P6SM SCT100 OVC200
     FM161600 27014KT P6SM SCT100 OVC200
     FM170300 20010KT P6SM OVC100=



000
FTUS45 KBOI 161120
TAFBOI
TAF
KBOI 161120Z 1612/1712 VRB03KT P6SM SCT100 OVC200
     FM161700 31007KT P6SM SCT100 OVC200
     FM170400 13005KT P6SM OVC100=



000
FTUS45 KBOI 160520
TAFBNO
TAF
KBNO 160520Z 1606/1706 29006KT P6SM OVC120
     FM160900 26010KT P6SM SCT060 OVC100=



000
FTUS45 KBOI 160520
TAFTWF
TAF
KTWF 160520Z 1606/1706 23010KT P6SM SCT150
     FM161800 27014KT P6SM OVC100=



000
FTUS45 KBOI 160520
TAFBKE
TAF
KBKE 160520Z 1606/1706 33006KT P6SM SCT060 OVC100
     FM161000 VRB05KT P6SM OVC080
     FM162100 30008KT P6SM OVC060=



000
FTUS45 KBOI 160520
TAFMYL
TAF
KMYL 160520Z 1606/1706 31006KT P6SM SCT050 OVC100
     FM161200 VRB03KT P6SM BKN050 OVC080
     FM162000 21008KT P6SM VCSH OVC050=



000
FTUS45 KBOI 160520
TAFBOI
TAF
KBOI 160520Z 1606/1706 32006KT P6SM BKN200
     FM161600 31008KT P6SM OVC100=



000
FTUS45 KBOI 160520
TAFJER
TAF
KJER 160520Z 1606/1706 24010KT P6SM SCT200
     FM160900 VRB06KT P6SM SCT200
     FM161500 25012KT P6SM OVC100=



000
FTUS45 KBOI 152321
TAFBNO
TAF
KBNO 152321Z 1600/1624 28012G20KT P6SM SCT100 OVC200
     FM160200 29004KT P6SM BKN120
     FM160900 26010KT P6SM SCT060 OVC100=



000
FTUS45 KBOI 152321
TAFBKE
TAF
KBKE 152321Z 1600/1624 29015G25KT P6SM SCT200
     FM160200 32014KT P6SM BKN100 OVC200
     FM160500 31006KT P6SM SCT060 OVC100
     FM161000 VRB05KT P6SM OVC060=



000
FTUS45 KBOI 152321
TAFTWF
TAF
KTWF 152321Z 1600/1624 26025G35KT P6SM BKN200
     FM160300 26015G20KT P6SM SCT100 OVC200
     FM160900 23012KT P6SM SCT150
     FM161800 27014KT P6SM OVC100=



000
FTUS45 KBOI 152321
TAFBOI
TAF
KBOI 152321Z 1600/1624 32022G28KT P6SM SCT100 BKN200
     FM160400 32006KT P6SM SCT200
     FM161600 31008KT P6SM OVC100=



000
FTUS45 KBOI 152321
TAFJER
TAF
KJER 152321Z 1600/1624 26030G40KT P6SM SCT100 BKN200
     FM160400 24012KT P6SM SCT100 OVC200
     FM160900 VRB06KT P6SM SCT150
     FM161500 25012KT P6SM OVC100=



000
FTUS45 KBOI 152321
TAFMYL
TAF
KMYL 152321Z 1600/1624 28015G25KT P6SM VCSH BKN050 OVC100
     FM160200 31008KT P6SM SCT050 OVC100
     FM161200 VRB03KT P6SM VCSH BKN050 OVC080=



000
FTUS45 KBOI 152119 AAA
TAFBKE
TAF AMD
KBKE 152119Z 1521/1618 28018KT P6SM SCT200
     FM160200 33014KT P6SM BKN100 OVC200
     FM160600 31006KT P6SM SCT060 OVC100
     FM161000 VRB05KT P6SM OVC060=



000
FTUS45 KBOI 151957 AAA
TAFBNO
TAF AMD
KBNO 151957Z 1520/1618 28012G20KT P6SM SCT100 OVC200
     FM160200 29004KT P6SM BKN120
     FM160900 26010KT P6SM SCT060 OVC100=



000
FTUS45 KBOI 151738
TAFMYL
TAF
KMYL 151738Z 1518/1618 21005KT P6SM OVC070
     FM152000 28015G25KT P6SM BKN050 OVC100
     FM160200 31008KT P6SM SCT050 OVC100
     FM161200 VRB03KT P6SM VCSH BKN050 OVC080=



000
FTUS45 KBOI 151738
TAFBNO
TAF
KBNO 151738Z 1518/1618 29022G29KT P6SM SCT100 OVC200
     FM160200 29014KT P6SM BKN120
     FM160900 26010KT P6SM SCT060 OVC100=



000
FTUS45 KBOI 151738
TAFJER
TAF
KJER 151738Z 1518/1618 24017G25KT P6SM BKN200
     FM152100 26035G45KT P6SM SCT100 BKN200
     FM160200 26020G30KT P6SM SCT100 OVC200
     FM160400 24015KT P6SM SCT100 OVC200
     FM160500 25012KT P6SM SKC=



000
FTUS45 KBOI 151738
TAFBKE
TAF
KBKE 151738Z 1518/1618 32019G29KT P6SM SCT200
     FM160200 33014KT P6SM BKN100 OVC200
     FM160600 31006KT P6SM SCT060 OVC100
     FM161000 VRB05KT P6SM OVC060=



000
FTUS45 KBOI 151738
TAFBOI
TAF
KBOI 151738Z 1518/1618 31015G25KT P6SM BKN100 OVC200
     FM152100 32022G29KT P6SM SCT100 BKN200
     FM160400 32006KT P6SM SCT200
     FM161200 VRB05KT P6SM OVC100=



000
FTUS45 KBOI 151738
TAFTWF
TAF
KTWF 151738Z 1518/1618 26025G35KT P6SM BKN200
     FM160300 26015G20KT P6SM SCT100 OVC200
     FM160900 23012KT P6SM SKC=



000
FTUS45 KBOI 151121
TAFBNO
TAF
KBNO 151121Z 1512/1612 27010KT P6SM SCT100 OVC200
     FM151500 27015KT P6SM BKN100 OVC200
     FM151800 27020G30KT P6SM SCT100 OVC200
     FM160200 29014KT P6SM SCT060 OVC100
     FM160900 26010KT P6SM VCSH SCT035 OVC050=



000
FTUS45 KBOI 151121
TAFJER
TAF
KJER 151121Z 1512/1612 VRB06KT P6SM FEW100 OVC200
     FM151500 25015G25KT P6SM SCT100 BKN200
     FM151800 26030G40KT P6SM SCT100 BKN200
     FM152100 26035G45KT P6SM SCT100 BKN200
     FM160200 26020G30KT P6SM SCT100 OVC200
     FM160400 24015KT P6SM SCT100 OVC200
     FM160500 25011KT P6SM SCT200=



000
FTUS45 KBOI 151121
TAFBOI
TAF
KBOI 151121Z 1512/1612 VRB06KT P6SM FEW100 BKN200
     FM151500 31012KT P6SM SCT100 BKN200
     FM151700 31016G26KT P6SM SCT100 BKN200
     FM152100 32022G32KT P6SM SCT100 BKN200
     FM160200 33014KT P6SM SCT100 OVC200
     FM160800 VRB05KT P6SM OVC100=



000
FTUS45 KBOI 151121
TAFMYL
TAF
KMYL 151121Z 1512/1612 VRB04KT P6SM SCT100 OVC200
     FM151600 27009KT P6SM SCT050 OVC100
     FM152000 28015G25KT P6SM BKN050 OVC100
     FM160200 31008KT P6SM SCT050 OVC100
     FM160500 VRB03KT P6SM SCT050 OVC100=



000
FTUS45 KBOI 151121
TAFTWF
TAF
KTWF 151121Z 1512/1612 18012KT P6SM FEW100 OVC200
     FM151400 23015G25KT P6SM SCT100 BKN200
     FM151800 27027G37KT P6SM SCT100 BKN200
     FM160200 24015G25KT P6SM SCT100 OVC200=



000
FTUS45 KBOI 151121
TAFBKE
TAF
KBKE 151121Z 1512/1612 VRB05KT P6SM SCT100 OVC200
     FM151400 33012KT P6SM BKN100 OVC200
     FM151700 32019G29KT P6SM BKN100 OVC200
     FM160200 33014KT P6SM BKN100 OVC200
     FM160600 31006KT P6SM SCT060 OVC100
     FM161000 VRB05KT P6SM VCSH OVC050=



000
FTUS45 KBOI 150520
TAFBNO
TAF
KBNO 150520Z 1506/1606 VRB05KT P6SM BKN200
     FM150900 26010KT P6SM SCT100 OVC150
     FM151500 27012KT P6SM BKN100 OVC150
     FM151800 27018G28KT P6SM SCT100 BKN150
     FM160200 30011KT P6SM OVC150=



000
FTUS45 KBOI 150520
TAFMYL
TAF
KMYL 150520Z 1506/1606 VRB05KT P6SM FEW100 OVC200
     FM151800 30010KT P6SM VCSH BKN030 OVC070
     FM152100 28015G25KT P6SM BKN050
     FM160200 32010KT P6SM OVC150=



000
FTUS45 KBOI 150520
TAFJER
TAF
KJER 150520Z 1506/1606 07009KT P6SM SCT200
     FM151800 25022G32KT P6SM BKN150
     FM152100 25030G40KT P6SM BKN150
     FM160200 26015KT P6SM SCT200
     FM160500 25011KT P6SM SCT200=



000
FTUS45 KBOI 150520
TAFBKE
TAF
KBKE 150520Z 1506/1606 VRB05KT P6SM SCT100 OVC150
     FM151400 30012KT P6SM BKN100 OVC150
     FM151800 32020G28KT P6SM BKN100
     FM160200 33012KT P6SM BKN100
     FM160400 33010KT P6SM SCT100 OVC150=



000
FTUS45 KBOI 150520
TAFTWF
TAF
KTWF 150520Z 1506/1606 18011KT P6SM SCT200
     FM151600 22015KT P6SM BKN150
     FM151800 27025G36KT P6SM BKN150
     FM160200 28015KT P6SM SCT200
     FM160500 26011KT P6SM SCT200=



000
FTUS45 KBOI 150520
TAFBOI
TAF
KBOI 150520Z 1506/1606 14009KT P6SM SCT200
     FM151600 31011KT P6SM BKN200
     FM151700 31016G26KT P6SM BKN150
     FM152100 32020G30KT P6SM BKN150
     FM160200 33014KT P6SM SCT200
     FM160400 33011KT P6SM SCT200=



    US Dept of Commerce
    National Oceanic and Atmospheric Administration
    National Weather Service
    1325 East West Highway
    Silver Spring, MD 20910
    Page Author: NWS Internet Services Team
Disclaimer
Information Quality
Credits
Glossary
Privacy Policy
Freedom of Information Act (FOIA)
About Us
Career Opportunities